sensor_id;sensor_type;location;lat;lon;timestamp;P1;durP1;ratioP1;P2;durP2;ratioP2
65597;SDS011;52267;51.984;20.956;2022-11-15T00:01:31;28.80;;;14.90;;
65597;SDS011;52267;51.984;20.956;2022-11-15T00:03:58;27.20;;;14.10;;
65597;SDS011;52267;51.984;20.956;2022-11-15T00:06:25;38.40;;;19.70;;
65597;SDS011;52267;51.984;20.956;2022-11-15T00:08:52;21.70;;;11.70;;
65597;SDS011;52267;51.984;20.956;2022-11-15T00:11:19;28.70;;;14.70;;
65597;SDS011;52267;51.984;20.956;2022-11-15T00:13:46;33.80;;;17.40;;
65597;SDS011;52267;51.984;20.956;2022-11-15T00:16:14;27.30;;;14.10;;
65597;SDS011;52267;51.984;20.956;2022-11-15T00:18:41;30.00;;;14.90;;
65597;SDS011;52267;51.984;20.956;2022-11-15T00:21:10;30.00;;;14.80;;
65597;SDS011;52267;51.984;20.956;2022-11-15T00:23:39;40.40;;;18.70;;
65597;SDS011;52267;51.984;20.956;2022-11-15T00:26:08;40.40;;;18.80;;
65597;SDS011;52267;51.984;20.956;2022-11-15T00:28:39;28.30;;;16.00;;
65597;SDS011;52267;51.984;20.956;2022-11-15T00:31:10;20.10;;;10.70;;
65597;SDS011;52267;51.984;20.956;2022-11-15T00:33:38;32.10;;;16.20;;
65597;SDS011;52267;51.984;20.956;2022-11-15T00:36:08;40.40;;;20.40;;
65597;SDS011;52267;51.984;20.956;2022-11-15T00:38:40;42.60;;;20.20;;
65597;SDS011;52267;51.984;20.956;2022-11-15T00:41:07;41.50;;;20.80;;
65597;SDS011;52267;51.984;20.956;2022-11-15T00:43:36;39.50;;;20.80;;
65597;SDS011;52267;51.984;20.956;2022-11-15T00:46:03;36.10;;;18.10;;
65597;SDS011;52267;51.984;20.956;2022-11-15T00:48:30;33.60;;;16.70;;
65597;SDS011;52267;51.984;20.956;2022-11-15T00:50:58;36.90;;;19.40;;
65597;SDS011;52267;51.984;20.956;2022-11-15T00:53:25;41.00;;;19.60;;
65597;SDS011;52267;51.984;20.956;2022-11-15T00:55:52;29.30;;;13.80;;
65597;SDS011;52267;51.984;20.956;2022-11-15T00:58:19;40.20;;;19.70;;
65597;SDS011;52267;51.984;20.956;2022-11-15T01:00:46;38.10;;;18.70;;
65597;SDS011;52267;51.984;20.956;2022-11-15T01:03:14;35.10;;;17.60;;
65597;SDS011;52267;51.984;20.956;2022-11-15T01:05:40;37.60;;;19.10;;
65597;SDS011;52267;51.984;20.956;2022-11-15T01:08:15;31.10;;;16.90;;
65597;SDS011;52267;51.984;20.956;2022-11-15T01:10:42;38.10;;;17.50;;
65597;SDS011;52267;51.984;20.956;2022-11-15T01:13:09;33.20;;;16.70;;
65597;SDS011;52267;51.984;20.956;2022-11-15T01:15:40;28.90;;;12.80;;
65597;SDS011;52267;51.984;20.956;2022-11-15T01:18:07;27.20;;;12.10;;
65597;SDS011;52267;51.984;20.956;2022-11-15T01:20:39;34.40;;;19.10;;
65597;SDS011;52267;51.984;20.956;2022-11-15T01:23:09;26.00;;;12.60;;
65597;SDS011;52267;51.984;20.956;2022-11-15T01:25:36;28.10;;;12.90;;
65597;SDS011;52267;51.984;20.956;2022-11-15T01:28:03;31.90;;;16.90;;
65597;SDS011;52267;51.984;20.956;2022-11-15T01:30:30;35.30;;;18.10;;
65597;SDS011;52267;51.984;20.956;2022-11-15T01:32:57;44.30;;;22.40;;
65597;SDS011;52267;51.984;20.956;2022-11-15T01:35:24;25.10;;;11.30;;
65597;SDS011;52267;51.984;20.956;2022-11-15T01:37:51;32.20;;;16.70;;
65597;SDS011;52267;51.984;20.956;2022-11-15T01:40:18;48.20;;;21.70;;
65597;SDS011;52267;51.984;20.956;2022-11-15T01:42:46;41.60;;;19.60;;
65597;SDS011;52267;51.984;20.956;2022-11-15T01:45:25;28.40;;;14.80;;
65597;SDS011;52267;51.984;20.956;2022-11-15T01:47:54;29.70;;;14.10;;
65597;SDS011;52267;51.984;20.956;2022-11-15T01:50:28;41.70;;;20.10;;
65597;SDS011;52267;51.984;20.956;2022-11-15T01:52:57;40.80;;;17.50;;
65597;SDS011;52267;51.984;20.956;2022-11-15T01:55:26;31.30;;;13.80;;
65597;SDS011;52267;51.984;20.956;2022-11-15T01:57:56;39.90;;;19.90;;
65597;SDS011;52267;51.984;20.956;2022-11-15T02:00:24;24.50;;;12.00;;
65597;SDS011;52267;51.984;20.956;2022-11-15T02:02:51;33.60;;;17.10;;
65597;SDS011;52267;51.984;20.956;2022-11-15T02:05:18;23.50;;;11.20;;
65597;SDS011;52267;51.984;20.956;2022-11-15T02:07:46;36.50;;;14.40;;
65597;SDS011;52267;51.984;20.956;2022-11-15T02:10:20;40.80;;;20.50;;
65597;SDS011;52267;51.984;20.956;2022-11-15T02:12:49;35.10;;;16.10;;
65597;SDS011;52267;51.984;20.956;2022-11-15T02:15:16;24.70;;;11.60;;
65597;SDS011;52267;51.984;20.956;2022-11-15T02:23:53;44.80;;;18.40;;
65597;SDS011;52267;51.984;20.956;2022-11-15T02:26:43;29.80;;;13.60;;
65597;SDS011;52267;51.984;20.956;2022-11-15T02:29:36;27.60;;;13.10;;
65597;SDS011;52267;51.984;20.956;2022-11-15T02:32:21;28.90;;;14.30;;
65597;SDS011;52267;51.984;20.956;2022-11-15T02:35:04;46.40;;;20.30;;
65597;SDS011;52267;51.984;20.956;2022-11-15T02:38:22;36.80;;;16.80;;
65597;SDS011;52267;51.984;20.956;2022-11-15T02:41:15;43.60;;;20.80;;
65597;SDS011;52267;51.984;20.956;2022-11-15T02:43:55;44.30;;;20.30;;
65597;SDS011;52267;51.984;20.956;2022-11-15T02:46:46;34.60;;;15.80;;
65597;SDS011;52267;51.984;20.956;2022-11-15T02:49:43;41.20;;;16.90;;
65597;SDS011;52267;51.984;20.956;2022-11-15T02:52:17;33.80;;;14.30;;
65597;SDS011;52267;51.984;20.956;2022-11-15T02:54:58;29.20;;;12.10;;
65597;SDS011;52267;51.984;20.956;2022-11-15T03:00:18;24.00;;;10.20;;
65597;SDS011;52267;51.984;20.956;2022-11-15T03:05:45;34.20;;;15.90;;
65597;SDS011;52267;51.984;20.956;2022-11-15T03:11:21;38.40;;;17.40;;
65597;SDS011;52267;51.984;20.956;2022-11-15T03:13:57;43.00;;;17.40;;
65597;SDS011;52267;51.984;20.956;2022-11-15T03:16:33;32.60;;;14.40;;
65597;SDS011;52267;51.984;20.956;2022-11-15T03:19:09;31.40;;;14.60;;
65597;SDS011;52267;51.984;20.956;2022-11-15T03:21:40;38.00;;;17.70;;
65597;SDS011;52267;51.984;20.956;2022-11-15T03:24:08;24.90;;;9.90;;
65597;SDS011;52267;51.984;20.956;2022-11-15T03:26:37;44.10;;;18.60;;
65597;SDS011;52267;51.984;20.956;2022-11-15T03:29:18;43.90;;;19.50;;
65597;SDS011;52267;51.984;20.956;2022-11-15T03:31:55;47.80;;;19.80;;
65597;SDS011;52267;51.984;20.956;2022-11-15T03:40:12;41.50;;;17.90;;
65597;SDS011;52267;51.984;20.956;2022-11-15T03:42:48;44.20;;;18.60;;
65597;SDS011;52267;51.984;20.956;2022-11-15T03:46:05;37.60;;;16.40;;
65597;SDS011;52267;51.984;20.956;2022-11-15T03:48:28;30.90;;;14.20;;
65597;SDS011;52267;51.984;20.956;2022-11-15T03:51:07;37.00;;;15.90;;
65597;SDS011;52267;51.984;20.956;2022-11-15T03:53:34;26.50;;;12.70;;
65597;SDS011;52267;51.984;20.956;2022-11-15T03:56:01;39.20;;;16.50;;
65597;SDS011;52267;51.984;20.956;2022-11-15T03:58:28;28.00;;;14.10;;
65597;SDS011;52267;51.984;20.956;2022-11-15T04:00:55;37.40;;;14.80;;
65597;SDS011;52267;51.984;20.956;2022-11-15T04:03:22;39.90;;;17.10;;
65597;SDS011;52267;51.984;20.956;2022-11-15T04:05:49;29.10;;;14.00;;
65597;SDS011;52267;51.984;20.956;2022-11-15T04:08:16;33.90;;;16.70;;
65597;SDS011;52267;51.984;20.956;2022-11-15T04:10:43;38.40;;;14.30;;
65597;SDS011;52267;51.984;20.956;2022-11-15T04:13:10;34.00;;;14.90;;
65597;SDS011;52267;51.984;20.956;2022-11-15T04:15:37;40.20;;;16.10;;
65597;SDS011;52267;51.984;20.956;2022-11-15T04:18:04;29.90;;;13.10;;
65597;SDS011;52267;51.984;20.956;2022-11-15T04:20:32;43.10;;;19.70;;
65597;SDS011;52267;51.984;20.956;2022-11-15T04:23:22;31.40;;;13.20;;
65597;SDS011;52267;51.984;20.956;2022-11-15T04:26:13;24.40;;;12.10;;
65597;SDS011;52267;51.984;20.956;2022-11-15T04:28:42;46.60;;;16.00;;
65597;SDS011;52267;51.984;20.956;2022-11-15T04:31:28;35.50;;;13.20;;
65597;SDS011;52267;51.984;20.956;2022-11-15T04:33:55;36.70;;;14.80;;
65597;SDS011;52267;51.984;20.956;2022-11-15T04:36:22;15.60;;;7.30;;
65597;SDS011;52267;51.984;20.956;2022-11-15T04:39:07;26.80;;;13.10;;
65597;SDS011;52267;51.984;20.956;2022-11-15T04:41:35;41.50;;;18.10;;
65597;SDS011;52267;51.984;20.956;2022-11-15T04:44:02;42.80;;;19.60;;
65597;SDS011;52267;51.984;20.956;2022-11-15T04:46:29;35.20;;;13.30;;
65597;SDS011;52267;51.984;20.956;2022-11-15T04:48:56;57.30;;;21.20;;
65597;SDS011;52267;51.984;20.956;2022-11-15T04:51:23;51.20;;;18.50;;
65597;SDS011;52267;51.984;20.956;2022-11-15T04:53:50;19.00;;;7.80;;
65597;SDS011;52267;51.984;20.956;2022-11-15T04:56:17;41.40;;;17.80;;
65597;SDS011;52267;51.984;20.956;2022-11-15T04:58:44;32.60;;;12.10;;
65597;SDS011;52267;51.984;20.956;2022-11-15T05:01:12;43.70;;;17.30;;
65597;SDS011;52267;51.984;20.956;2022-11-15T05:03:43;55.10;;;20.50;;
65597;SDS011;52267;51.984;20.956;2022-11-15T05:06:29;56.00;;;21.30;;
65597;SDS011;52267;51.984;20.956;2022-11-15T05:08:57;26.40;;;12.20;;
65597;SDS011;52267;51.984;20.956;2022-11-15T05:11:25;30.00;;;12.30;;
65597;SDS011;52267;51.984;20.956;2022-11-15T05:13:53;20.60;;;8.80;;
65597;SDS011;52267;51.984;20.956;2022-11-15T05:16:21;32.50;;;13.90;;
65597;SDS011;52267;51.984;20.956;2022-11-15T05:18:52;38.20;;;16.00;;
65597;SDS011;52267;51.984;20.956;2022-11-15T05:23:47;36.90;;;14.90;;
65597;SDS011;52267;51.984;20.956;2022-11-15T05:26:16;35.90;;;15.40;;
65597;SDS011;52267;51.984;20.956;2022-11-15T05:28:44;38.20;;;14.20;;
65597;SDS011;52267;51.984;20.956;2022-11-15T05:31:14;33.50;;;17.00;;
65597;SDS011;52267;51.984;20.956;2022-11-15T05:33:42;41.80;;;18.00;;
65597;SDS011;52267;51.984;20.956;2022-11-15T05:36:15;46.50;;;19.80;;
65597;SDS011;52267;51.984;20.956;2022-11-15T05:38:47;25.60;;;13.10;;
65597;SDS011;52267;51.984;20.956;2022-11-15T05:41:17;41.50;;;17.50;;
65597;SDS011;52267;51.984;20.956;2022-11-15T05:43:46;34.00;;;15.50;;
65597;SDS011;52267;51.984;20.956;2022-11-15T05:46:14;41.80;;;16.60;;
65597;SDS011;52267;51.984;20.956;2022-11-15T05:48:46;47.90;;;18.10;;
65597;SDS011;52267;51.984;20.956;2022-11-15T05:51:17;39.50;;;14.00;;
65597;SDS011;52267;51.984;20.956;2022-11-15T05:53:45;34.40;;;14.40;;
65597;SDS011;52267;51.984;20.956;2022-11-15T05:56:12;56.40;;;20.90;;
65597;SDS011;52267;51.984;20.956;2022-11-15T05:58:39;44.80;;;18.50;;
65597;SDS011;52267;51.984;20.956;2022-11-15T06:01:06;34.10;;;15.00;;
65597;SDS011;52267;51.984;20.956;2022-11-15T06:03:33;31.40;;;13.80;;
65597;SDS011;52267;51.984;20.956;2022-11-15T06:06:00;36.90;;;15.00;;
65597;SDS011;52267;51.984;20.956;2022-11-15T06:08:28;40.30;;;16.60;;
65597;SDS011;52267;51.984;20.956;2022-11-15T06:10:55;23.60;;;11.20;;
65597;SDS011;52267;51.984;20.956;2022-11-15T06:13:22;42.60;;;17.30;;
65597;SDS011;52267;51.984;20.956;2022-11-15T06:15:49;30.50;;;12.00;;
65597;SDS011;52267;51.984;20.956;2022-11-15T06:18:16;38.00;;;16.00;;
65597;SDS011;52267;51.984;20.956;2022-11-15T06:20:43;35.10;;;17.40;;
65597;SDS011;52267;51.984;20.956;2022-11-15T06:23:10;34.30;;;14.80;;
65597;SDS011;52267;51.984;20.956;2022-11-15T06:25:37;35.00;;;15.20;;
65597;SDS011;52267;51.984;20.956;2022-11-15T06:28:04;44.70;;;18.70;;
65597;SDS011;52267;51.984;20.956;2022-11-15T06:30:31;27.60;;;13.00;;
65597;SDS011;52267;51.984;20.956;2022-11-15T06:33:02;17.60;;;9.70;;
65597;SDS011;52267;51.984;20.956;2022-11-15T06:35:33;28.70;;;11.90;;
65597;SDS011;52267;51.984;20.956;2022-11-15T06:38:04;41.70;;;15.80;;
65597;SDS011;52267;51.984;20.956;2022-11-15T06:40:36;34.50;;;14.80;;
65597;SDS011;52267;51.984;20.956;2022-11-15T06:43:05;30.30;;;14.40;;
65597;SDS011;52267;51.984;20.956;2022-11-15T06:45:32;21.90;;;11.10;;
65597;SDS011;52267;51.984;20.956;2022-11-15T06:48:00;29.90;;;14.30;;
65597;SDS011;52267;51.984;20.956;2022-11-15T06:50:27;24.40;;;11.60;;
65597;SDS011;52267;51.984;20.956;2022-11-15T06:52:54;33.10;;;14.20;;
65597;SDS011;52267;51.984;20.956;2022-11-15T06:55:21;23.20;;;9.80;;
65597;SDS011;52267;51.984;20.956;2022-11-15T06:57:54;24.80;;;11.80;;
65597;SDS011;52267;51.984;20.956;2022-11-15T07:00:22;27.80;;;13.80;;
65597;SDS011;52267;51.984;20.956;2022-11-15T07:02:49;29.70;;;13.30;;
65597;SDS011;52267;51.984;20.956;2022-11-15T07:05:16;20.90;;;9.80;;
65597;SDS011;52267;51.984;20.956;2022-11-15T07:07:51;33.20;;;13.90;;
65597;SDS011;52267;51.984;20.956;2022-11-15T07:10:22;20.90;;;10.20;;
65597;SDS011;52267;51.984;20.956;2022-11-15T07:12:51;32.80;;;14.00;;
65597;SDS011;52267;51.984;20.956;2022-11-15T07:15:20;24.80;;;10.60;;
65597;SDS011;52267;51.984;20.956;2022-11-15T07:17:49;27.40;;;11.90;;
65597;SDS011;52267;51.984;20.956;2022-11-15T07:20:16;21.00;;;10.40;;
65597;SDS011;52267;51.984;20.956;2022-11-15T07:22:44;22.20;;;11.10;;
65597;SDS011;52267;51.984;20.956;2022-11-15T07:25:11;26.10;;;12.20;;
65597;SDS011;52267;51.984;20.956;2022-11-15T07:27:38;29.60;;;11.90;;
65597;SDS011;52267;51.984;20.956;2022-11-15T07:30:06;21.10;;;10.50;;
65597;SDS011;52267;51.984;20.956;2022-11-15T07:32:34;22.70;;;10.80;;
65597;SDS011;52267;51.984;20.956;2022-11-15T07:35:01;25.10;;;12.40;;
65597;SDS011;52267;51.984;20.956;2022-11-15T07:37:28;23.60;;;10.10;;
65597;SDS011;52267;51.984;20.956;2022-11-15T07:39:55;29.20;;;13.50;;
65597;SDS011;52267;51.984;20.956;2022-11-15T07:42:22;32.50;;;15.40;;
65597;SDS011;52267;51.984;20.956;2022-11-15T07:45:08;32.40;;;12.60;;
65597;SDS011;52267;51.984;20.956;2022-11-15T07:47:35;28.30;;;14.20;;
65597;SDS011;52267;51.984;20.956;2022-11-15T07:50:02;25.70;;;13.10;;
65597;SDS011;52267;51.984;20.956;2022-11-15T07:52:30;28.70;;;12.40;;
65597;SDS011;52267;51.984;20.956;2022-11-15T07:54:57;35.00;;;15.10;;
65597;SDS011;52267;51.984;20.956;2022-11-15T07:57:24;32.40;;;14.10;;
65597;SDS011;52267;51.984;20.956;2022-11-15T07:59:51;33.50;;;15.20;;
65597;SDS011;52267;51.984;20.956;2022-11-15T08:02:18;31.40;;;13.20;;
65597;SDS011;52267;51.984;20.956;2022-11-15T08:04:45;33.00;;;14.20;;
65597;SDS011;52267;51.984;20.956;2022-11-15T08:07:12;18.20;;;9.30;;
65597;SDS011;52267;51.984;20.956;2022-11-15T08:09:39;28.30;;;13.50;;
65597;SDS011;52267;51.984;20.956;2022-11-15T08:12:06;33.40;;;14.80;;
65597;SDS011;52267;51.984;20.956;2022-11-15T08:14:34;21.20;;;9.90;;
65597;SDS011;52267;51.984;20.956;2022-11-15T08:17:02;30.00;;;12.90;;
65597;SDS011;52267;51.984;20.956;2022-11-15T08:19:28;30.10;;;13.20;;
65597;SDS011;52267;51.984;20.956;2022-11-15T08:21:55;26.30;;;12.00;;
65597;SDS011;52267;51.984;20.956;2022-11-15T08:24:22;32.30;;;15.10;;
65597;SDS011;52267;51.984;20.956;2022-11-15T08:26:50;35.50;;;17.20;;
65597;SDS011;52267;51.984;20.956;2022-11-15T08:29:17;35.50;;;17.80;;
65597;SDS011;52267;51.984;20.956;2022-11-15T08:31:43;29.90;;;14.40;;
65597;SDS011;52267;51.984;20.956;2022-11-15T08:34:11;24.40;;;11.50;;
65597;SDS011;52267;51.984;20.956;2022-11-15T08:36:38;25.80;;;12.40;;
65597;SDS011;52267;51.984;20.956;2022-11-15T08:39:05;27.30;;;13.20;;
65597;SDS011;52267;51.984;20.956;2022-11-15T08:41:33;29.10;;;13.70;;
65597;SDS011;52267;51.984;20.956;2022-11-15T08:44:05;18.60;;;9.60;;
65597;SDS011;52267;51.984;20.956;2022-11-15T08:46:32;23.40;;;12.20;;
65597;SDS011;52267;51.984;20.956;2022-11-15T08:48:59;42.00;;;20.80;;
65597;SDS011;52267;51.984;20.956;2022-11-15T08:51:26;45.70;;;20.70;;
65597;SDS011;52267;51.984;20.956;2022-11-15T08:53:53;35.20;;;17.80;;
65597;SDS011;52267;51.984;20.956;2022-11-15T08:56:20;25.40;;;12.20;;
65597;SDS011;52267;51.984;20.956;2022-11-15T08:58:47;21.20;;;11.90;;
65597;SDS011;52267;51.984;20.956;2022-11-15T09:01:16;14.60;;;7.90;;
65597;SDS011;52267;51.984;20.956;2022-11-15T09:03:45;31.00;;;15.10;;
65597;SDS011;52267;51.984;20.956;2022-11-15T09:06:12;35.90;;;17.50;;
65597;SDS011;52267;51.984;20.956;2022-11-15T09:08:39;17.10;;;8.00;;
65597;SDS011;52267;51.984;20.956;2022-11-15T09:11:08;23.20;;;12.60;;
65597;SDS011;52267;51.984;20.956;2022-11-15T09:13:36;35.40;;;16.10;;
65597;SDS011;52267;51.984;20.956;2022-11-15T09:16:04;27.70;;;13.70;;
65597;SDS011;52267;51.984;20.956;2022-11-15T09:18:31;32.60;;;16.30;;
65597;SDS011;52267;51.984;20.956;2022-11-15T09:21:00;32.50;;;17.00;;
65597;SDS011;52267;51.984;20.956;2022-11-15T09:23:28;28.00;;;13.60;;
65597;SDS011;52267;51.984;20.956;2022-11-15T09:26:00;26.70;;;13.90;;
65597;SDS011;52267;51.984;20.956;2022-11-15T09:28:29;33.70;;;17.60;;
65597;SDS011;52267;51.984;20.956;2022-11-15T09:31:05;28.60;;;14.30;;
65597;SDS011;52267;51.984;20.956;2022-11-15T09:33:33;31.00;;;13.70;;
65597;SDS011;52267;51.984;20.956;2022-11-15T09:36:05;20.60;;;11.30;;
65597;SDS011;52267;51.984;20.956;2022-11-15T09:38:34;22.90;;;12.20;;
65597;SDS011;52267;51.984;20.956;2022-11-15T09:44:11;30.70;;;15.30;;
65597;SDS011;52267;51.984;20.956;2022-11-15T09:49:53;22.50;;;11.90;;
65597;SDS011;52267;51.984;20.956;2022-11-15T09:52:21;14.40;;;6.60;;
65597;SDS011;52267;51.984;20.956;2022-11-15T09:54:50;20.80;;;9.50;;
65597;SDS011;52267;51.984;20.956;2022-11-15T09:57:30;32.80;;;15.90;;
65597;SDS011;52267;51.984;20.956;2022-11-15T10:05:40;29.80;;;14.60;;
65597;SDS011;52267;51.984;20.956;2022-11-15T10:08:17;38.70;;;20.10;;
65597;SDS011;52267;51.984;20.956;2022-11-15T10:10:56;23.70;;;12.60;;
65597;SDS011;52267;51.984;20.956;2022-11-15T10:13:36;37.50;;;17.90;;
65597;SDS011;52267;51.984;20.956;2022-11-15T10:22:50;31.30;;;14.60;;
65597;SDS011;52267;51.984;20.956;2022-11-15T10:25:24;30.20;;;15.00;;
65597;SDS011;52267;51.984;20.956;2022-11-15T10:28:01;38.50;;;16.20;;
65597;SDS011;52267;51.984;20.956;2022-11-15T10:30:37;35.40;;;17.70;;
65597;SDS011;52267;51.984;20.956;2022-11-15T10:33:14;28.70;;;13.60;;
65597;SDS011;52267;51.984;20.956;2022-11-15T10:35:43;31.60;;;16.60;;
65597;SDS011;52267;51.984;20.956;2022-11-15T10:38:11;28.60;;;12.90;;
65597;SDS011;52267;51.984;20.956;2022-11-15T10:40:40;23.60;;;12.50;;
65597;SDS011;52267;51.984;20.956;2022-11-15T10:43:16;39.30;;;18.50;;
65597;SDS011;52267;51.984;20.956;2022-11-15T10:45:46;33.30;;;16.40;;
65597;SDS011;52267;51.984;20.956;2022-11-15T10:50:42;33.00;;;16.20;;
65597;SDS011;52267;51.984;20.956;2022-11-15T10:55:53;37.10;;;18.50;;
65597;SDS011;52267;51.984;20.956;2022-11-15T10:58:34;41.40;;;18.20;;
65597;SDS011;52267;51.984;20.956;2022-11-15T11:01:20;40.10;;;19.30;;
65597;SDS011;52267;51.984;20.956;2022-11-15T11:04:09;44.60;;;19.90;;
65597;SDS011;52267;51.984;20.956;2022-11-15T11:09:35;38.20;;;17.70;;
65597;SDS011;52267;51.984;20.956;2022-11-15T11:12:05;41.00;;;21.50;;
65597;SDS011;52267;51.984;20.956;2022-11-15T11:14:38;53.60;;;23.30;;
65597;SDS011;52267;51.984;20.956;2022-11-15T11:23:10;41.00;;;20.00;;
65597;SDS011;52267;51.984;20.956;2022-11-15T11:34:15;48.80;;;22.80;;
65597;SDS011;52267;51.984;20.956;2022-11-15T11:45:26;38.90;;;21.10;;
65597;SDS011;52267;51.984;20.956;2022-11-15T11:48:07;47.00;;;22.80;;
65597;SDS011;52267;51.984;20.956;2022-11-15T11:50:46;47.10;;;23.10;;
65597;SDS011;52267;51.984;20.956;2022-11-15T11:53:28;44.70;;;21.60;;
65597;SDS011;52267;51.984;20.956;2022-11-15T11:56:02;41.80;;;19.50;;
65597;SDS011;52267;51.984;20.956;2022-11-15T11:58:42;43.70;;;22.00;;
65597;SDS011;52267;51.984;20.956;2022-11-15T12:04:21;39.90;;;19.30;;
65597;SDS011;52267;51.984;20.956;2022-11-15T12:09:51;45.30;;;22.40;;
65597;SDS011;52267;51.984;20.956;2022-11-15T12:13:07;43.50;;;21.10;;
65597;SDS011;52267;51.984;20.956;2022-11-15T12:15:50;39.30;;;19.80;;
65597;SDS011;52267;51.984;20.956;2022-11-15T12:18:19;42.30;;;20.30;;
65597;SDS011;52267;51.984;20.956;2022-11-15T12:20:57;42.90;;;21.70;;
65597;SDS011;52267;51.984;20.956;2022-11-15T12:23:37;23.60;;;14.30;;
65597;SDS011;52267;51.984;20.956;2022-11-15T12:26:24;34.70;;;19.20;;
65597;SDS011;52267;51.984;20.956;2022-11-15T12:28:58;43.50;;;20.40;;
65597;SDS011;52267;51.984;20.956;2022-11-15T12:36:57;31.70;;;17.20;;
65597;SDS011;52267;51.984;20.956;2022-11-15T12:42:56;43.70;;;21.80;;
65597;SDS011;52267;51.984;20.956;2022-11-15T12:45:45;40.70;;;20.50;;
65597;SDS011;52267;51.984;20.956;2022-11-15T13:07:04;49.60;;;23.30;;
65597;SDS011;52267;51.984;20.956;2022-11-15T13:14:48;45.90;;;23.00;;
65597;SDS011;52267;51.984;20.956;2022-11-15T13:19:47;44.70;;;22.70;;
65597;SDS011;52267;51.984;20.956;2022-11-15T13:28:45;40.00;;;21.60;;
65597;SDS011;52267;51.984;20.956;2022-11-15T13:31:42;50.40;;;23.80;;
65597;SDS011;52267;51.984;20.956;2022-11-15T13:34:31;53.00;;;24.50;;
65597;SDS011;52267;51.984;20.956;2022-11-15T13:37:12;43.90;;;22.30;;
65597;SDS011;52267;51.984;20.956;2022-11-15T13:39:55;48.20;;;22.70;;
65597;SDS011;52267;51.984;20.956;2022-11-15T13:42:41;48.50;;;24.60;;
65597;SDS011;52267;51.984;20.956;2022-11-15T13:45:13;44.60;;;23.90;;
65597;SDS011;52267;51.984;20.956;2022-11-15T13:47:43;47.20;;;24.50;;
65597;SDS011;52267;51.984;20.956;2022-11-15T13:50:11;48.40;;;23.80;;
65597;SDS011;52267;51.984;20.956;2022-11-15T13:52:40;41.40;;;22.20;;
65597;SDS011;52267;51.984;20.956;2022-11-15T13:57:46;47.40;;;23.60;;
65597;SDS011;52267;51.984;20.956;2022-11-15T14:03:23;48.00;;;23.00;;
65597;SDS011;52267;51.984;20.956;2022-11-15T14:06:02;45.40;;;21.40;;
65597;SDS011;52267;51.984;20.956;2022-11-15T14:08:39;40.90;;;22.80;;
65597;SDS011;52267;51.984;20.956;2022-11-15T14:11:12;44.90;;;25.30;;
65597;SDS011;52267;51.984;20.956;2022-11-15T14:14:10;46.90;;;23.30;;
65597;SDS011;52267;51.984;20.956;2022-11-15T14:16:40;44.50;;;22.00;;
65597;SDS011;52267;51.984;20.956;2022-11-15T14:19:12;42.30;;;22.50;;
65597;SDS011;52267;51.984;20.956;2022-11-15T14:28:07;49.90;;;22.40;;
65597;SDS011;52267;51.984;20.956;2022-11-15T14:30:34;42.00;;;21.80;;
65597;SDS011;52267;51.984;20.956;2022-11-15T14:33:02;43.20;;;22.30;;
65597;SDS011;52267;51.984;20.956;2022-11-15T14:35:45;44.40;;;22.80;;
65597;SDS011;52267;51.984;20.956;2022-11-15T14:38:12;41.50;;;21.60;;
65597;SDS011;52267;51.984;20.956;2022-11-15T14:40:40;46.70;;;25.20;;
65597;SDS011;52267;51.984;20.956;2022-11-15T14:43:12;41.80;;;21.40;;
65597;SDS011;52267;51.984;20.956;2022-11-15T14:45:39;39.90;;;20.40;;
65597;SDS011;52267;51.984;20.956;2022-11-15T14:48:07;42.40;;;21.90;;
65597;SDS011;52267;51.984;20.956;2022-11-15T14:50:35;41.70;;;22.30;;
65597;SDS011;52267;51.984;20.956;2022-11-15T14:53:03;45.20;;;24.10;;
65597;SDS011;52267;51.984;20.956;2022-11-15T14:55:34;44.10;;;22.80;;
65597;SDS011;52267;51.984;20.956;2022-11-15T14:58:04;46.70;;;23.00;;
65597;SDS011;52267;51.984;20.956;2022-11-15T15:00:32;40.30;;;19.70;;
65597;SDS011;52267;51.984;20.956;2022-11-15T15:02:59;46.60;;;22.40;;
65597;SDS011;52267;51.984;20.956;2022-11-15T15:05:35;42.50;;;21.50;;
65597;SDS011;52267;51.984;20.956;2022-11-15T15:08:05;41.40;;;21.60;;
65597;SDS011;52267;51.984;20.956;2022-11-15T15:10:38;46.10;;;22.30;;
65597;SDS011;52267;51.984;20.956;2022-11-15T15:13:18;45.90;;;22.00;;
65597;SDS011;52267;51.984;20.956;2022-11-15T15:15:47;43.70;;;22.70;;
65597;SDS011;52267;51.984;20.956;2022-11-15T15:18:16;47.40;;;24.50;;
65597;SDS011;52267;51.984;20.956;2022-11-15T15:20:44;42.10;;;24.20;;
65597;SDS011;52267;51.984;20.956;2022-11-15T15:23:17;50.40;;;24.30;;
65597;SDS011;52267;51.984;20.956;2022-11-15T15:25:47;42.40;;;21.40;;
65597;SDS011;52267;51.984;20.956;2022-11-15T15:28:15;40.50;;;20.70;;
65597;SDS011;52267;51.984;20.956;2022-11-15T15:30:42;45.30;;;21.40;;
65597;SDS011;52267;51.984;20.956;2022-11-15T15:33:10;43.90;;;22.10;;
65597;SDS011;52267;51.984;20.956;2022-11-15T15:35:37;45.50;;;22.50;;
65597;SDS011;52267;51.984;20.956;2022-11-15T15:38:04;47.40;;;23.20;;
65597;SDS011;52267;51.984;20.956;2022-11-15T15:40:33;47.70;;;25.30;;
65597;SDS011;52267;51.984;20.956;2022-11-15T15:43:00;48.80;;;24.80;;
65597;SDS011;52267;51.984;20.956;2022-11-15T15:45:27;49.10;;;24.30;;
65597;SDS011;52267;51.984;20.956;2022-11-15T15:47:55;45.20;;;21.60;;
65597;SDS011;52267;51.984;20.956;2022-11-15T15:50:32;41.30;;;22.90;;
65597;SDS011;52267;51.984;20.956;2022-11-15T15:53:02;45.90;;;21.60;;
65597;SDS011;52267;51.984;20.956;2022-11-15T15:55:30;49.20;;;23.50;;
65597;SDS011;52267;51.984;20.956;2022-11-15T15:57:57;47.70;;;21.60;;
65597;SDS011;52267;51.984;20.956;2022-11-15T16:00:25;36.50;;;18.90;;
65597;SDS011;52267;51.984;20.956;2022-11-15T16:02:53;45.30;;;22.30;;
65597;SDS011;52267;51.984;20.956;2022-11-15T16:05:21;43.60;;;20.30;;
65597;SDS011;52267;51.984;20.956;2022-11-15T16:07:49;44.80;;;22.50;;
65597;SDS011;52267;51.984;20.956;2022-11-15T16:12:48;42.70;;;23.00;;
65597;SDS011;52267;51.984;20.956;2022-11-15T16:15:16;40.70;;;22.70;;
65597;SDS011;52267;51.984;20.956;2022-11-15T16:17:52;46.40;;;22.00;;
65597;SDS011;52267;51.984;20.956;2022-11-15T16:22:57;41.40;;;21.10;;
65597;SDS011;52267;51.984;20.956;2022-11-15T16:25:25;44.00;;;22.70;;
65597;SDS011;52267;51.984;20.956;2022-11-15T16:27:53;48.10;;;23.10;;
65597;SDS011;52267;51.984;20.956;2022-11-15T16:30:22;47.20;;;23.20;;
65597;SDS011;52267;51.984;20.956;2022-11-15T16:32:50;46.60;;;23.50;;
65597;SDS011;52267;51.984;20.956;2022-11-15T16:35:17;43.90;;;21.70;;
65597;SDS011;52267;51.984;20.956;2022-11-15T16:37:44;46.90;;;22.80;;
65597;SDS011;52267;51.984;20.956;2022-11-15T16:40:32;42.70;;;21.90;;
65597;SDS011;52267;51.984;20.956;2022-11-15T16:43:01;43.30;;;22.00;;
65597;SDS011;52267;51.984;20.956;2022-11-15T16:45:30;44.10;;;21.00;;
65597;SDS011;52267;51.984;20.956;2022-11-15T16:47:57;44.80;;;22.80;;
65597;SDS011;52267;51.984;20.956;2022-11-15T16:50:29;45.80;;;23.60;;